Time;durP1;ratioP1;P1;durP2;ratioP2;P2;SDS_P1;SDS_P2;PMS_P1;PMS_P2;Temp;Humidity;BMP_temperature;BMP_pressure;BME280_temperature;BME280_humidity;BME280_pressure;Samples;Min_cycle;Max_cycle;Signal;HPM_P1;HPM_P2
2022/08/19 00:00:19;;;;;;;14.98;9.90;;;;;;;19.39;95.56;101471.66;5084991;28;20166;-67
2022/08/19 00:02:46;;;;;;;15.88;10.40;;;;;;;19.35;96.44;101470.13;5085311;28;20724;-67
2022/08/19 00:05:12;;;;;;;15.70;10.38;;;;;;;19.38;95.78;101461.94;5084315;28;20036;-69
2022/08/19 00:07:38;;;;;;;14.88;10.35;;;;;;;19.40;95.73;101452.84;5083445;28;20528;-69
2022/08/19 00:10:07;;;;;;;15.90;10.35;;;;;;;19.42;95.90;101452.75;5066504;28;20020;-69
2022/08/19 00:12:33;;;;;;;11.98;10.13;;;;;;;19.47;96.10;101449.81;5083416;28;20031;-68
2022/08/19 00:14:58;;;;;;;20.38;11.60;;;;;;;19.50;95.50;101460.31;5085178;28;20036;-69
2022/08/19 00:17:24;;;;;;;18.83;11.57;;;;;;;19.43;96.35;101455.34;5083833;28;20514;-67
2022/08/19 00:19:49;;;;;;;12.77;9.40;;;;;;;19.45;96.39;101466.78;5083560;28;20390;-69
2022/08/19 00:22:15;;;;;;;17.30;11.50;;;;;;;19.50;96.01;101468.31;5084543;28;20093;-68
2022/08/19 00:24:43;;;;;;;20.38;11.23;;;;;;;19.52;96.50;101461.06;5083400;28;20028;-68
2022/08/19 00:27:08;;;;;;;14.77;11.20;;;;;;;19.50;96.12;101462.97;5084315;28;20736;-68
2022/08/19 00:29:34;;;;;;;18.25;11.23;;;;;;;19.48;96.53;101459.53;5084825;28;20035;-68
2022/08/19 00:31:59;;;;;;;14.00;11.75;;;;;;;19.43;96.51;101463.34;5083825;28;20055;-68
2022/08/19 00:34:27;;;;;;;17.63;12.18;;;;;;;19.42;96.92;101466.13;5084204;28;20608;-69
2022/08/19 00:36:54;;;;;;;14.63;11.70;;;;;;;19.40;96.53;101466.22;5084700;28;20024;-67
2022/08/19 00:39:19;;;;;;;20.35;11.80;;;;;;;19.39;96.75;101456.44;5083551;28;20039;-67
2022/08/19 00:41:48;;;;;;;17.02;12.60;;;;;;;19.41;97.11;101459.91;5083907;28;20047;-67
2022/08/19 00:44:14;;;;;;;17.02;12.40;;;;;;;19.42;96.55;101456.28;5083733;28;20039;-67
2022/08/19 00:46:44;;;;;;;16.30;13.07;;;;;;;19.37;96.68;101455.72;5083751;28;20032;-67
2022/08/19 00:49:14;;;;;;;20.60;14.02;;;;;;;19.34;96.85;101452.34;5084437;28;20031;-67
2022/08/19 00:51:40;;;;;;;18.55;12.35;;;;;;;19.22;97.16;101456.63;5065781;28;20032;-68
2022/08/19 00:54:06;;;;;;;18.30;11.55;;;;;;;19.14;96.83;101463.31;5065596;28;20089;-67
2022/08/19 00:56:32;;;;;;;21.67;13.10;;;;;;;19.10;97.71;101458.25;5048638;28;20032;-67
2022/08/19 00:58:58;;;;;;;18.65;13.43;;;;;;;19.07;98.11;101464.59;5066230;28;20027;-67
2022/08/19 01:01:23;;;;;;;17.83;12.02;;;;;;;19.11;97.88;101458.16;5082918;28;20020;-59
2022/08/19 01:03:49;;;;;;;19.00;12.93;;;;;;;19.08;97.81;101469.00;5084568;28;20116;-66
2022/08/19 01:06:14;;;;;;;17.00;11.88;;;;;;;19.10;97.64;101471.59;5088045;22;20072;-69
2022/08/19 01:08:40;;;;;;;18.08;12.43;;;;;;;19.08;97.93;101469.00;5072353;28;20086;-69
2022/08/19 01:11:06;;;;;;;21.15;13.02;;;;;;;19.08;97.57;101474.34;5063095;28;20086;-67
2022/08/19 01:13:33;;;;;;;13.90;11.45;;;;;;;19.14;97.98;101468.66;5071966;28;20036;-68
2022/08/19 01:16:02;;;;;;;15.98;12.05;;;;;;;19.16;98.06;101471.22;5087164;28;20027;-68
2022/08/19 01:18:28;;;;;;;;;;;;;;;19.15;98.11;101465.00;5069922;28;20028;-67
2022/08/19 01:20:55;;;;;;;16.77;11.95;;;;;;;19.13;97.81;101471.41;5069292;28;20006;-61
2022/08/19 01:23:21;;;;;;;19.88;14.23;;;;;;;19.08;98.43;101476.19;5088318;28;20032;-66
2022/08/19 01:25:51;;;;;;;22.42;14.07;;;;;;;19.01;98.36;101479.19;5086384;28;20018;-67
2022/08/19 01:28:23;;;;;;;15.70;12.18;;;;;;;19.08;98.61;101470.84;5088207;28;20024;-67
2022/08/19 01:30:49;;;;;;;19.00;12.05;;;;;;;19.13;98.50;101464.28;5087490;28;20032;-68
2022/08/19 01:33:14;;;;;;;20.80;12.15;;;;;;;19.18;98.31;101467.50;5087502;28;20028;-67
2022/08/19 01:35:40;;;;;;;18.58;12.40;;;;;;;19.19;98.40;101474.59;5087546;28;20077;-68
2022/08/19 01:38:10;;;;;;;18.85;12.13;;;;;;;19.27;98.32;101473.25;5087598;28;20139;-67
2022/08/19 01:40:38;;;;;;;18.20;12.88;;;;;;;19.33;97.87;101462.19;5087100;28;20488;-67
2022/08/19 01:43:03;;;;;;;16.75;11.65;;;;;;;19.35;98.07;101467.44;5087245;28;20201;-67
2022/08/19 01:45:30;;;;;;;22.15;13.48;;;;;;;19.29;97.96;101474.00;5086612;28;20550;-67
2022/08/19 01:47:56;;;;;;;14.77;11.18;;;;;;;19.26;97.63;101472.38;5087632;28;20069;-68
2022/08/19 01:50:22;;;;;;;17.27;11.20;;;;;;;19.32;98.07;101481.84;5086687;28;20073;-67
2022/08/19 01:52:47;;;;;;;15.13;10.52;;;;;;;19.35;97.93;101472.78;5086589;28;20028;-67
2022/08/19 01:55:19;;;;;;;16.17;11.45;;;;;;;19.36;97.52;101467.34;5086922;28;20016;-68
2022/08/19 01:57:49;;;;;;;15.57;11.57;;;;;;;19.42;97.83;101466.13;5086895;28;20444;-67
2022/08/19 02:00:17;;;;;;;15.35;10.80;;;;;;;19.41;97.40;101465.25;5069260;28;20020;-68
2022/08/19 02:02:42;;;;;;;17.25;11.63;;;;;;;19.40;97.20;101460.88;5085536;28;20031;-68
2022/08/19 02:05:08;;;;;;;15.93;10.95;;;;;;;19.43;97.37;101458.00;5087228;28;20462;-68
2022/08/19 02:07:35;;;;;;;18.08;13.18;;;;;;;19.40;97.53;101466.22;5086488;28;20809;-68
2022/08/19 02:10:05;;;;;;;18.77;12.02;;;;;;;19.36;97.12;101471.84;5086544;28;20039;-69
2022/08/19 02:12:30;;;;;;;17.33;11.68;;;;;;;19.32;96.87;101471.16;5086220;28;20420;-68
2022/08/19 02:14:55;;;;;;;18.25;13.15;;;;;;;19.29;97.20;101466.84;5086471;28;20024;-67
2022/08/19 02:17:21;;;;;;;16.13;11.75;;;;;;;19.27;97.67;101473.25;5086601;28;20074;-66
2022/08/19 02:19:48;;;;;;;19.70;13.68;;;;;;;19.18;97.95;101475.53;5086768;28;20024;-68
2022/08/19 02:22:14;;;;;;;19.42;12.57;;;;;;;19.16;97.31;101471.22;5086557;28;20032;-68
2022/08/19 02:24:39;;;;;;;18.00;13.05;;;;;;;19.07;97.86;101472.63;5085783;28;20016;-68
2022/08/19 02:27:05;;;;;;;18.58;12.48;;;;;;;19.06;98.11;101469.06;5084789;28;20051;-67
2022/08/19 02:29:31;;;;;;;18.08;13.05;;;;;;;19.02;97.93;101464.88;5086484;28;20030;-67
2022/08/19 02:31:56;;;;;;;23.33;13.40;;;;;;;18.97;98.49;101461.63;5086251;28;20059;-67
2022/08/19 02:34:21;;;;;;;19.58;14.13;;;;;;;18.92;98.38;101469.91;5087189;28;20441;-66
2022/08/19 02:36:46;;;;;;;26.23;14.70;;;;;;;18.87;98.61;101460.47;5085446;28;20031;-66
2022/08/19 02:39:12;;;;;;;22.60;14.20;;;;;;;18.83;98.84;101470.47;5085214;28;20096;-66
2022/08/19 02:41:37;;;;;;;23.42;14.70;;;;;;;18.81;98.96;101462.53;5086083;28;20040;-66
2022/08/19 02:44:04;;;;;;;21.92;14.27;;;;;;;18.79;98.82;101460.91;5085775;28;20023;-66
2022/08/19 02:46:32;;;;;;;24.48;14.77;;;;;;;18.77;98.55;101452.13;5086125;28;20028;-67
2022/08/19 02:49:00;;;;;;;22.35;15.10;;;;;;;18.79;98.98;101444.91;5067245;28;20100;-66
2022/08/19 02:51:31;;;;;;;24.73;14.75;;;;;;;18.76;98.78;101437.94;5085933;28;20052;-66
2022/08/19 02:53:58;;;;;;;22.20;15.57;;;;;;;18.81;99.04;101429.63;5085144;28;20027;-66
2022/08/19 02:56:27;;;;;;;21.25;14.65;;;;;;;18.83;99.10;101438.41;5085619;28;20051;-66
2022/08/19 02:58:53;;;;;;;24.33;15.07;;;;;;;18.77;98.92;101433.44;5085821;28;20032;-65
2022/08/19 03:01:27;;;;;;;21.25;14.60;;;;;;;18.77;98.94;101438.78;5086229;28;20036;-66
2022/08/19 03:03:53;;;;;;;25.95;15.75;;;;;;;18.77;99.33;101433.44;5086658;28;20028;-66
2022/08/19 03:06:19;;;;;;;26.38;16.73;;;;;;;18.77;99.60;101428.97;5085736;28;20219;-67
2022/08/19 03:08:46;;;;;;;25.65;17.55;;;;;;;18.77;99.74;101441.44;5086125;28;20027;-67
2022/08/19 03:11:17;;;;;;;26.63;17.40;;;;;;;18.72;99.59;101430.19;5083797;28;20032;-67
2022/08/19 03:13:43;;;;;;;37.85;21.30;;;;;;;18.77;99.78;101436.09;5066834;28;20451;-68
2022/08/19 03:16:08;;;;;;;37.22;21.55;;;;;;;18.84;100.00;101434.78;5084503;28;20040;-69
2022/08/19 03:18:34;;;;;;;42.42;23.23;;;;;;;18.86;99.80;101429.38;5085742;28;20103;-66
2022/08/19 03:21:00;;;;;;;38.83;21.15;;;;;;;18.84;99.34;101428.63;5084921;28;20036;-67
2022/08/19 03:23:25;;;;;;;30.30;19.67;;;;;;;18.77;99.78;101434.31;5084983;28;20668;-66
2022/08/19 03:25:52;;;;;;;38.60;22.30;;;;;;;18.78;99.66;101424.50;5084473;28;20514;-66
2022/08/19 03:28:19;;;;;;;37.22;22.10;;;;;;;18.78;99.63;101420.00;5084513;28;20024;-67
2022/08/19 03:30:56;;;;;;;49.17;25.73;;;;;;;18.82;99.94;101420.69;5084560;28;20159;-66
2022/08/19 03:33:22;;;;;;;43.53;23.88;;;;;;;18.82;99.67;101420.69;5085450;28;20460;-65
2022/08/19 03:35:47;;;;;;;41.10;24.23;;;;;;;18.75;99.89;101424.69;5066158;28;20062;-65
2022/08/19 03:38:13;;;;;;;41.13;23.70;;;;;;;18.76;100.00;101424.59;5066541;28;20166;-66
2022/08/19 03:40:38;;;;;;;44.13;25.40;;;;;;;18.75;100.00;101419.34;5084004;28;20106;-66
2022/08/19 03:43:03;;;;;;;46.90;26.00;;;;;;;18.72;100.00;101419.53;5084526;28;20114;-66
2022/08/19 03:45:29;;;;;;;51.13;27.40;;;;;;;18.71;100.00;101426.66;5084606;28;20107;-66
2022/08/19 03:47:55;;;;;;;50.55;27.02;;;;;;;18.67;100.00;101417.97;5084376;28;20340;-65
2022/08/19 03:50:20;;;;;;;55.85;29.38;;;;;;;18.68;100.00;101425.03;5090098;28;20077;-67
2022/08/19 03:52:50;;;;;;;51.90;28.02;;;;;;;18.68;100.00;101433.06;5058790;28;20032;-66
2022/08/19 03:55:16;;;;;;;56.38;29.55;;;;;;;18.73;100.00;101429.25;5104843;28;20023;-67
2022/08/19 03:57:41;;;;;;;55.08;29.58;;;;;;;18.76;100.00;101432.59;5096884;28;20027;-67
2022/08/19 04:00:07;;;;;;;59.28;30.98;;;;;;;18.73;100.00;101430.13;5066896;28;20016;-68
2022/08/19 04:02:33;;;;;;;66.55;32.25;;;;;;;18.78;100.00;101436.03;5055525;28;20052;-69
2022/08/19 04:04:58;;;;;;;64.38;30.98;;;;;;;18.73;100.00;101437.25;5084865;28;20081;-66
2022/08/19 04:07:24;;;;;;;61.55;32.08;;;;;;;18.71;100.00;101444.47;5080580;28;20201;-63
2022/08/19 04:09:51;;;;;;;67.72;33.38;;;;;;;18.71;100.00;101439.13;5084248;28;20028;-67
2022/08/19 04:12:17;;;;;;;65.07;31.73;;;;;;;18.67;100.00;101441.97;5084876;28;20371;-66
2022/08/19 04:14:42;;;;;;;67.72;33.15;;;;;;;18.65;100.00;101440.38;5084247;28;20020;-66
2022/08/19 04:17:08;;;;;;;66.72;31.58;;;;;;;18.60;100.00;101437.97;5084470;28;20112;-67
2022/08/19 04:19:34;;;;;;;62.67;32.15;;;;;;;18.58;100.00;101444.34;5084314;28;20020;-66
2022/08/19 04:21:59;;;;;;;69.63;34.00;;;;;;;18.59;100.00;101438.91;5066537;28;20455;-66
2022/08/19 04:24:25;;;;;;;67.13;32.85;;;;;;;18.57;100.00;101438.13;5084087;28;20146;-68
2022/08/19 04:26:51;;;;;;;81.97;36.42;;;;;;;18.55;100.00;101435.56;5084418;28;20386;-66
2022/08/19 04:29:24;;;;;;;72.28;34.03;;;;;;;18.57;100.00;101438.13;5084486;28;20028;-66
2022/08/19 04:31:51;;;;;;;76.68;36.90;;;;;;;18.71;100.00;101441.81;5084366;28;20028;-69
2022/08/19 04:34:18;;;;;;;79.18;36.38;;;;;;;18.82;100.00;101437.56;5084638;28;20066;-66
2022/08/19 04:36:44;;;;;;;72.20;35.13;;;;;;;18.88;100.00;101440.81;5084372;28;20028;-65
2022/08/19 04:39:13;;;;;;;74.00;35.67;;;;;;;18.88;100.00;101436.34;5083907;28;20058;-66
2022/08/19 04:44:22;;;;;;;81.38;38.83;;;;;;;19.05;100.00;101442.47;5084583;28;20086;-68
2022/08/19 04:46:48;;;;;;;83.03;37.72;;;;;;;19.14;100.00;101455.28;5084323;28;20059;-67
2022/08/19 04:49:16;;;;;;;85.78;37.92;;;;;;;19.27;100.00;101451.88;5083518;28;20028;-67
2022/08/19 04:51:43;;;;;;;86.70;40.17;;;;;;;19.42;100.00;101450.09;5087728;28;20043;-67
2022/08/19 04:54:08;;;;;;;98.88;42.92;;;;;;;19.54;100.00;101448.47;5087707;28;20111;-67
2022/08/19 04:56:34;;;;;;;93.68;41.42;;;;;;;19.57;100.00;101449.09;5086730;28;20454;-67
2022/08/19 04:59:03;;;;;;;92.47;42.28;;;;;;;19.78;99.93;101447.88;5087621;28;20028;-68
2022/08/19 05:01:29;;;;;;;91.32;41.92;;;;;;;19.84;99.17;101452.84;5087376;28;20043;-67
2022/08/19 05:03:56;;;;;;;93.38;41.47;;;;;;;19.96;98.71;101453.88;5087865;28;20035;-65
2022/08/19 05:06:22;;;;;;;80.82;38.50;;;;;;;19.98;99.23;101451.09;5087184;28;20078;-63
2022/08/19 05:08:48;;;;;;;81.20;39.92;;;;;;;20.10;98.52;101458.34;5088287;28;20024;-61
2022/08/19 05:11:19;;;;;;;69.93;33.92;;;;;;;20.38;97.53;101456.53;5086390;28;20213;-62
2022/08/19 05:13:46;;;;;;;78.30;35.13;;;;;;;20.50;96.56;101456.69;5087907;28;20032;-61
2022/08/19 05:16:13;;;;;;;78.55;36.65;;;;;;;20.48;95.99;101459.47;5085472;28;20474;-61
2022/08/19 05:24:08;;;;;;;71.05;34.45;;;;;;;20.60;94.55;101452.44;5088333;28;20079;-63
2022/08/19 05:26:37;;;;;;;65.75;32.33;;;;;;;20.77;94.18;101459.31;5085210;28;20470;-65
2022/08/19 05:29:03;;;;;;;;;;;;;;;20.78;93.75;101460.19;5088513;28;20024;-64
2022/08/19 05:31:29;;;;;;;62.67;30.75;;;;;;;20.82;93.94;101461.69;5086848;28;19916;-63
2022/08/19 05:33:55;;;;;;;61.70;32.22;;;;;;;20.78;93.90;101452.16;5087005;28;20028;-64
2022/08/19 05:36:21;;;;;;;58.72;30.92;;;;;;;20.77;94.13;101453.94;5088048;28;20028;-63
2022/08/19 05:38:47;;;;;;;60.47;31.10;;;;;;;20.81;94.21;101462.66;5086441;28;20055;-63
2022/08/19 05:41:13;;;;;;;55.40;29.98;;;;;;;20.93;93.70;101448.47;5086738;28;20024;-63
2022/08/19 05:43:39;;;;;;;60.03;30.25;;;;;;;20.94;93.59;101450.16;5086300;28;20028;-64
2022/08/19 05:46:05;;;;;;;65.43;30.33;;;;;;;21.10;92.64;101443.75;5087342;28;20085;-64
2022/08/19 05:48:34;;;;;;;56.15;30.13;;;;;;;21.16;92.65;101448.69;5085841;28;20090;-64
2022/08/19 05:51:06;;;;;;;57.58;30.08;;;;;;;21.33;91.63;101454.69;5087017;28;20063;-64
2022/08/19 05:53:32;;;;;;;59.92;31.67;;;;;;;21.40;91.02;101455.13;5085911;28;20041;-65
2022/08/19 05:55:57;;;;;;;55.55;29.25;;;;;;;21.49;91.18;101457.13;5086748;28;20489;-64
2022/08/19 05:58:23;;;;;;;60.95;30.10;;;;;;;21.52;90.68;101461.44;5086905;28;20020;-65
2022/08/19 06:00:49;;;;;;;50.60;28.80;;;;;;;21.61;90.51;101451.88;5087291;28;20024;-63
2022/08/19 06:03:14;;;;;;;49.38;27.35;;;;;;;21.70;90.00;101452.06;5085116;28;20028;-62
2022/08/19 06:05:40;;;;;;;55.05;28.40;;;;;;;21.82;89.56;101455.72;5086576;28;20082;-63
2022/08/19 06:08:07;;;;;;;60.80;30.15;;;;;;;21.88;89.21;101442.84;5085705;28;20119;-62
2022/08/19 06:10:32;;;;;;;50.47;25.25;;;;;;;22.08;88.24;101444.91;5086073;28;20477;-62
2022/08/19 06:12:57;;;;;;;45.47;24.10;;;;;;;22.25;87.64;101437.44;5085360;28;20028;-62
2022/08/19 06:15:25;;;;;;;39.90;24.05;;;;;;;22.34;87.59;101446.63;5085914;28;20023;-62
2022/08/19 06:17:50;;;;;;;51.67;27.23;;;;;;;22.38;86.73;101453.50;5086839;28;20035;-62
2022/08/19 06:20:17;;;;;;;46.17;24.80;;;;;;;22.50;86.44;101453.53;5086684;28;20024;-63
2022/08/19 06:22:45;;;;;;;49.75;25.65;;;;;;;22.49;86.83;101457.19;5093634;28;20066;-64
2022/08/19 06:25:12;;;;;;;45.72;26.42;;;;;;;22.59;86.33;101452.88;5090873;28;20046;-64
2022/08/19 06:27:37;;;;;;;49.63;26.05;;;;;;;22.51;86.13;101453.41;5094357;28;20542;-64
2022/08/19 06:30:04;;;;;;;41.58;25.48;;;;;;;22.46;86.20;101463.66;5085704;28;20028;-71
2022/08/19 06:32:30;;;;;;;48.55;25.02;;;;;;;22.42;86.24;101465.69;5085515;28;20032;-68
2022/08/19 06:34:55;;;;;;;39.25;23.95;;;;;;;22.45;86.60;101456.56;5085738;28;20401;-66
2022/08/19 06:37:21;;;;;;;46.20;26.65;;;;;;;22.42;86.99;101459.47;5086310;28;20319;-67
2022/08/19 06:39:46;;;;;;;42.08;24.30;;;;;;;22.57;86.55;101454.78;5084695;28;20029;-68
2022/08/19 06:42:13;;;;;;;43.35;25.15;;;;;;;22.58;86.20;101446.63;5085238;28;20020;-67
2022/08/19 06:44:40;;;;;;;41.63;25.50;;;;;;;22.66;86.28;101443.38;5085371;28;20452;-68
2022/08/19 06:47:08;;;;;;;44.65;26.25;;;;;;;22.69;85.72;101450.34;5085712;28;20043;-68
2022/08/19 06:49:35;;;;;;;44.08;24.90;;;;;;;22.57;86.21;101438.66;5086118;28;20036;-69
2022/08/19 06:52:00;;;;;;;49.20;26.48;;;;;;;22.53;86.19;101447.94;5084942;28;20032;-69
2022/08/19 06:54:29;;;;;;;53.13;25.98;;;;;;;22.62;85.99;101446.41;5084551;28;20055;-68
2022/08/19 06:56:55;;;;;;;35.90;23.08;;;;;;;22.65;86.08;101452.41;5085391;28;20470;-68
2022/08/19 06:59:22;;;;;;;39.05;24.23;;;;;;;22.63;86.31;101446.28;5085584;28;20024;-68
2022/08/19 07:01:52;;;;;;;41.65;23.70;;;;;;;22.62;86.24;101452.63;5084778;28;20031;-67
2022/08/19 07:04:23;;;;;;;37.88;21.85;;;;;;;22.75;85.66;101460.59;5085076;28;20032;-67
2022/08/19 07:06:49;;;;;;;44.00;22.65;;;;;;;22.84;85.56;101459.03;5094150;28;20064;-67
2022/08/19 07:09:16;;;;;;;36.25;21.30;;;;;;;23.05;84.89;101461.91;5093504;28;20477;-68
2022/08/19 07:11:46;;;;;;;38.60;23.15;;;;;;;23.24;83.84;101473.94;5075387;28;20157;-68
2022/08/19 07:14:13;;;;;;;33.72;21.65;;;;;;;23.39;83.25;101468.34;5094706;28;20098;-68
2022/08/19 07:16:39;;;;;;;37.20;21.05;;;;;;;23.40;83.04;101476.28;5095967;28;20578;-68
2022/08/19 07:19:04;;;;;;;31.80;21.35;;;;;;;23.41;82.97;101480.69;5106221;28;20032;-67
2022/08/19 07:21:30;;;;;;;38.70;21.83;;;;;;;23.35;83.12;101475.75;5104468;28;20080;-67
2022/08/19 07:23:56;;;;;;;29.77;20.17;;;;;;;23.48;82.89;101475.69;5095105;28;20123;-67
2022/08/19 07:26:27;;;;;;;35.10;22.52;;;;;;;23.55;82.29;101478.75;5085387;28;20020;-70
2022/08/19 07:28:53;;;;;;;31.60;20.95;;;;;;;23.52;82.70;101470.91;5085593;28;20039;-74
2022/08/19 07:31:21;;;;;;;33.67;20.63;;;;;;;23.53;82.31;101465.41;5085603;28;20422;-76
2022/08/19 07:33:48;;;;;;;39.05;21.60;;;;;;;23.59;82.02;101473.00;5085851;28;20030;-76
2022/08/19 07:36:15;;;;;;;39.08;21.23;;;;;;;23.75;81.58;101473.59;5084690;28;20024;-75
2022/08/19 07:38:44;;;;;;;35.90;20.58;;;;;;;23.93;80.67;101472.09;5085989;28;20016;-75
2022/08/19 07:41:15;;;;;;;36.58;21.48;;;;;;;23.96;80.87;101473.72;5084945;28;20036;-76
2022/08/19 07:43:40;;;;;;;29.25;18.83;;;;;;;24.15;80.46;101481.16;5084612;28;20024;-76
2022/08/19 07:46:06;;;;;;;36.00;19.52;;;;;;;24.26;79.92;101474.03;5084263;28;20034;-76
2022/08/19 07:48:32;;;;;;;33.17;20.88;;;;;;;24.33;78.74;101483.31;5085375;28;20074;-76
2022/08/19 07:51:03;;;;;;;31.58;19.98;;;;;;;24.51;78.20;101477.38;5083597;28;20040;-76
2022/08/19 07:53:32;;;;;;;42.00;23.27;;;;;;;24.37;78.42;101482.06;5085219;28;20470;-74
2022/08/19 07:56:01;;;;;;;30.88;21.77;;;;;;;24.32;78.96;101478.91;5083730;28;20030;-77
2022/08/19 07:58:27;;;;;;;34.30;19.98;;;;;;;24.61;77.69;101475.59;5084195;28;20028;-76
2022/08/19 08:00:52;;;;;;;27.88;17.75;;;;;;;24.65;78.02;101485.13;5084528;28;20039;-68
2022/08/19 08:03:19;;;;;;;31.33;18.67;;;;;;;24.71;76.96;101489.19;5083758;28;20016;-67
2022/08/19 08:11:00;;;;;;;37.63;18.05;;;;;;;24.50;77.76;101505.28;5083425;28;20080;-69
2022/08/19 08:13:27;;;;;;;30.20;19.92;;;;;;;24.48;78.31;101506.25;5082349;28;20030;-71
2022/08/19 08:15:52;;;;;;;27.55;17.23;;;;;;;24.61;77.79;101495.31;5084919;28;20081;-68
2022/08/19 08:18:18;;;;;;;30.95;17.00;;;;;;;24.63;77.55;101508.69;5082763;28;20024;-74
2022/08/19 08:20:43;;;;;;;28.55;16.27;;;;;;;24.56;77.68;101502.09;5084429;28;20032;-77
2022/08/19 08:23:28;;;;;;;27.42;15.80;;;;;;;24.48;77.91;101503.56;5090288;28;20440;-72
2022/08/19 08:25:56;;;;;;;22.95;13.75;;;;;;;24.68;77.51;101497.50;5089478;28;20109;-69
2022/08/19 08:28:22;;;;;;;22.40;14.30;;;;;;;24.71;77.72;101494.56;5091520;28;20656;-69
2022/08/19 08:30:48;;;;;;;27.40;15.57;;;;;;;24.80;76.51;101498.31;5083491;28;20035;-73
2022/08/19 08:33:21;;;;;;;24.55;14.70;;;;;;;24.66;77.49;101507.56;5091599;28;20024;-73
2022/08/19 08:35:47;;;;;;;26.77;12.98;;;;;;;24.84;77.59;101508.69;5096269;28;20384;-73
2022/08/19 08:38:12;;;;;;;29.98;14.43;;;;;;;24.99;76.50;101508.41;5094085;28;20024;-72
2022/08/19 08:40:45;;;;;;;21.85;11.43;;;;;;;25.10;76.36;101516.41;5063661;28;20027;-72
2022/08/19 08:43:37;;;;;;;24.05;12.10;;;;;;;25.17;75.01;101519.47;5084337;28;20032;-72
2022/08/19 08:46:06;;;;;;;19.65;11.38;;;;;;;25.03;75.37;101522.47;5074129;28;20040;-73
2022/08/19 08:48:37;;;;;;;21.17;12.80;;;;;;;24.95;75.20;101517.75;5065414;28;20077;-72
2022/08/19 08:51:11;;;;;;;30.30;16.50;;;;;;;24.86;76.38;101519.31;5065330;28;20534;-71
2022/08/19 08:53:38;;;;;;;29.33;15.40;;;;;;;24.85;76.57;101514.94;5064742;28;20028;-74
2022/08/19 08:56:05;;;;;;;28.90;15.75;;;;;;;24.97;76.60;101513.94;5082538;28;20020;-71
2022/08/19 08:58:42;;;;;;;30.65;17.70;;;;;;;25.11;75.68;101517.28;5064723;28;20024;-72
2022/08/19 09:01:10;;;;;;;37.25;16.77;;;;;;;25.33;74.56;101531.59;5082623;28;20077;-71
2022/08/19 09:03:37;;;;;;;27.88;16.42;;;;;;;25.17;75.75;101527.56;5083892;28;20077;-72
2022/08/19 09:06:17;;;;;;;30.42;16.45;;;;;;;25.19;74.58;101525.56;5064916;28;20474;-71
2022/08/19 09:08:50;;;;;;;29.55;15.82;;;;;;;25.04;75.02;101518.81;5063762;28;20029;-71
2022/08/19 09:11:25;;;;;;;26.88;14.90;;;;;;;25.20;75.84;101521.03;5062233;28;20119;-71
2022/08/19 09:14:12;;;;;;;29.58;14.40;;;;;;;25.51;74.43;101522.91;5065161;28;20046;-72
2022/08/19 09:16:40;;;;;;;30.25;15.60;;;;;;;25.82;73.68;101521.06;5083222;28;20114;-72
2022/08/19 09:19:07;;;;;;;25.73;14.00;;;;;;;26.09;73.51;101526.84;5064516;28;20024;-74
2022/08/19 09:21:34;;;;;;;26.65;14.00;;;;;;;26.12;71.71;101526.56;5082186;28;20281;-74
2022/08/19 09:23:59;;;;;;;25.38;14.43;;;;;;;26.22;71.92;101527.44;5082085;28;20493;-71
2022/08/19 09:26:26;;;;;;;33.88;17.67;;;;;;;26.28;71.89;101530.59;5082802;28;20032;-74
2022/08/19 09:28:53;;;;;;;20.25;14.18;;;;;;;26.12;72.40;101531.97;5083612;28;20039;-74
2022/08/19 09:31:23;;;;;;;19.23;11.85;;;;;;;26.16;72.48;101528.00;5064525;28;20129;-70
2022/08/19 09:33:50;;;;;;;23.38;14.63;;;;;;;26.67;71.77;101522.53;5066000;28;20032;-74
2022/08/19 09:36:18;;;;;;;23.50;13.50;;;;;;;27.12;69.07;101520.28;5065017;28;20011;-72
2022/08/19 09:38:44;;;;;;;21.33;12.30;;;;;;;27.21;69.11;101524.78;5086980;28;20388;-72
2022/08/19 09:41:16;;;;;;;16.02;10.05;;;;;;;27.32;67.63;101514.78;5085678;28;20039;-72
2022/08/19 09:43:45;;;;;;;16.67;10.00;;;;;;;27.06;68.38;101512.75;5087490;28;20558;-72
2022/08/19 09:46:10;;;;;;;16.92;9.82;;;;;;;26.65;68.77;101520.97;5107301;28;20513;-73
2022/08/19 09:48:37;;;;;;;17.20;8.85;;;;;;;26.55;69.31;101529.09;5099713;28;20012;-72
2022/08/19 09:51:15;;;;;;;13.63;8.77;;;;;;;26.36;69.29;101528.06;5098473;28;20104;-74
2022/08/19 09:53:42;;;;;;;17.38;9.30;;;;;;;26.15;70.13;101537.09;5095494;28;20031;-73
2022/08/19 09:56:07;;;;;;;15.90;8.50;;;;;;;26.02;71.18;101537.34;5075588;28;20035;-72
2022/08/19 09:58:34;;;;;;;21.98;9.70;;;;;;;25.79;71.86;101529.44;5096433;28;20023;-72
2022/08/19 10:01:00;;;;;;;13.65;9.18;;;;;;;25.73;72.34;101530.84;5090587;28;20031;-71
2022/08/19 10:03:27;;;;;;;19.27;8.63;;;;;;;25.82;72.33;101536.41;5085651;28;20023;-71
2022/08/19 10:05:53;;;;;;;19.70;8.45;;;;;;;25.53;73.71;101527.19;5105654;28;20051;-72
2022/08/19 10:08:23;;;;;;;17.70;8.75;;;;;;;25.31;73.89;101539.00;5097967;28;20099;-72
2022/08/19 10:10:50;;;;;;;21.63;9.18;;;;;;;25.10;75.32;101537.13;5085434;28;20028;-72
2022/08/19 10:13:20;;;;;;;14.43;8.50;;;;;;;24.94;76.08;101537.59;5090891;28;20043;-72
2022/08/19 10:15:45;;;;;;;18.55;9.60;;;;;;;24.78;77.26;101538.00;5088161;28;20027;-72
2022/08/19 10:18:10;;;;;;;15.82;8.07;;;;;;;24.80;78.36;101538.75;5098931;28;20023;-72
2022/08/19 10:20:36;;;;;;;15.63;7.43;;;;;;;24.82;78.18;101539.44;5095987;28;20470;-73
2022/08/19 10:23:02;;;;;;;15.32;6.03;;;;;;;25.05;78.05;101534.84;5086422;28;20214;-73
2022/08/19 10:25:28;;;;;;;19.33;6.68;;;;;;;25.32;77.31;101535.28;5097747;28;20030;-72
2022/08/19 10:27:53;;;;;;;18.48;6.65;;;;;;;25.69;76.54;101528.56;5094268;28;20032;-63
2022/08/19 10:30:20;;;;;;;17.33;6.00;;;;;;;26.11;74.84;101536.53;5100554;28;20024;-72
2022/08/19 10:32:46;;;;;;;9.65;4.78;;;;;;;26.58;72.76;101528.81;5098538;28;20024;-71
2022/08/19 10:35:12;;;;;;;9.73;4.75;;;;;;;26.92;71.62;101530.22;5094979;28;20027;-73
2022/08/19 10:37:38;;;;;;;10.40;5.15;;;;;;;27.16;71.09;101527.09;5095824;28;20048;-73
2022/08/19 10:40:08;;;;;;;10.27;4.57;;;;;;;27.30;69.77;101531.19;5092685;28;20746;-72
2022/08/19 10:42:34;;;;;;;12.63;4.82;;;;;;;27.43;69.50;101522.75;5090256;28;20027;-72
2022/08/19 10:45:00;;;;;;;11.82;4.95;;;;;;;27.31;70.46;101523.91;5075405;28;20437;-71
2022/08/19 10:47:26;;;;;;;9.88;4.45;;;;;;;27.41;68.78;101527.44;5091013;28;20019;-72
2022/08/19 10:52:41;;;;;;;5.95;3.97;;;;;;;27.71;67.10;101519.25;5092774;28;20038;-72
2022/08/19 10:57:52;;;;;;;8.98;3.47;;;;;;;28.47;63.53;101505.59;5095081;28;20049;-72
2022/08/19 11:00:19;;;;;;;9.80;3.92;;;;;;;28.36;62.43;101517.50;5095362;28;20028;-71
2022/08/19 11:02:44;;;;;;;8.18;3.72;;;;;;;28.12;62.32;101514.31;5093737;28;20107;-70
2022/08/19 11:05:10;;;;;;;7.05;3.78;;;;;;;27.54;65.16;101510.03;5089478;28;20115;-71
2022/08/19 11:07:39;;;;;;;6.80;3.58;;;;;;;27.46;64.43;101508.94;5093403;28;20044;-73
2022/08/19 11:10:05;;;;;;;8.57;3.13;;;;;;;26.90;65.35;101522.25;5092400;28;20119;-69
2022/08/19 11:12:30;;;;;;;11.90;2.90;;;;;;;26.74;65.80;101514.72;5096147;28;20035;-72
2022/08/19 11:14:56;;;;;;;4.82;2.83;;;;;;;26.52;66.77;101527.53;5093278;28;20012;-71
2022/08/19 11:17:23;;;;;;;5.47;2.60;;;;;;;26.46;66.70;101528.09;5076458;28;20026;-73
2022/08/19 11:19:49;;;;;;;5.78;2.08;;;;;;;26.18;67.97;101528.72;5095832;28;20043;-72
2022/08/19 11:22:15;;;;;;;2.15;1.95;;;;;;;26.05;67.58;101525.41;5090081;28;20470;-72
2022/08/19 11:24:40;;;;;;;4.68;1.77;;;;;;;25.90;68.76;101531.19;5094326;28;20019;-72
2022/08/19 11:27:08;;;;;;;4.32;2.10;;;;;;;25.91;68.52;101534.75;5094661;28;20042;-72